Time;durP1;ratioP1;P1;durP2;ratioP2;P2;SDS_P1;SDS_P2;PMS_P1;PMS_P2;Temp;Humidity;BMP_temperature;BMP_pressure;BME280_temperature;BME280_humidity;BME280_pressure;Samples;Min_cycle;Max_cycle;Signal;HPM_P1;HPM_P2
2023/06/30 00:01:39;;;;;;;15.10;13.52;;;;;;;;;;5051018;28;20445;-92
2023/06/30 00:04:06;;;;;;;14.40;12.90;;;;;;;;;;5048394;28;20385;-91
2023/06/30 00:06:32;;;;;;;15.18;13.68;;;;;;;;;;5049393;28;20587;-91
2023/06/30 00:08:58;;;;;;;15.50;14.02;;;;;;;;;;5052592;28;20384;-93
2023/06/30 00:11:24;;;;;;;15.07;13.40;;;;;;;;;;5052522;28;20393;-93
2023/06/30 00:13:52;;;;;;;13.95;12.70;;;;;;;;;;5052705;28;20390;-93
2023/06/30 00:16:18;;;;;;;14.95;12.98;;;;;;;;;;5052840;28;20417;-93
2023/06/30 00:18:44;;;;;;;14.18;12.77;;;;;;;;;;5052393;28;20389;-92
2023/06/30 00:21:13;;;;;;;14.80;13.32;;;;;;;;;;5052684;28;20542;-93
2023/06/30 00:23:39;;;;;;;15.10;13.55;;;;;;;;;;5039315;28;20438;-93
2023/06/30 00:26:05;;;;;;;14.15;12.77;;;;;;;;;;5046314;28;20389;-92
2023/06/30 00:28:31;;;;;;;14.65;13.05;;;;;;;;;;5048397;28;20374;-92
2023/06/30 00:30:57;;;;;;;14.10;12.70;;;;;;;;;;5046073;28;20387;-92
2023/06/30 00:33:23;;;;;;;14.73;13.18;;;;;;;;;;5058642;28;20948;-93
2023/06/30 00:35:49;;;;;;;14.70;13.30;;;;;;;;;;5051259;28;20440;-92
2023/06/30 00:38:15;;;;;;;14.77;13.35;;;;;;;;;;5051365;28;20439;-93
2023/06/30 00:40:41;;;;;;;14.05;12.65;;;;;;;;;;5050724;28;20814;-93
2023/06/30 00:43:07;;;;;;;13.77;12.40;;;;;;;;;;5045528;28;20387;-93
2023/06/30 00:45:33;;;;;;;14.38;12.88;;;;;;;;;;5046319;28;20382;-93
2023/06/30 00:47:59;;;;;;;14.95;13.45;;;;;;;;;;5051662;28;20377;-93
2023/06/30 00:50:28;;;;;;;13.93;12.52;;;;;;;;;;5051616;28;20455;-91
2023/06/30 00:52:55;;;;;;;15.35;13.60;;;;;;;;;;5052095;28;20716;-92
2023/06/30 00:55:21;;;;;;;13.77;12.40;;;;;;;;;;5051424;28;20798;-93
2023/06/30 00:57:47;;;;;;;14.20;12.70;;;;;;;;;;5046930;28;20410;-93
2023/06/30 01:00:13;;;;;;;14.23;12.82;;;;;;;;;;5049126;28;20405;-92
2023/06/30 01:03:15;;;;;;;14.13;12.82;;;;;;;;;;5045885;28;20378;-93
2023/06/30 01:05:51;;;;;;;14.90;13.35;;;;;;;;;;4971652;28;20486;-92
2023/06/30 01:08:21;;;;;;;14.55;13.05;;;;;;;;;;5036274;28;20413;-92
2023/06/30 01:10:48;;;;;;;13.80;12.50;;;;;;;;;;5051599;28;20435;-91
2023/06/30 01:13:15;;;;;;;13.90;12.52;;;;;;;;;;5052097;28;20378;-92
2023/06/30 01:15:43;;;;;;;15.57;14.05;;;;;;;;;;5051513;28;20448;-92
2023/06/30 01:18:11;;;;;;;14.43;12.93;;;;;;;;;;5051953;28;20476;-92
2023/06/30 01:20:40;;;;;;;14.35;13.00;;;;;;;;;;5050933;28;20410;-92
2023/06/30 01:23:15;;;;;;;15.68;14.07;;;;;;;;;;5051671;28;20954;-94
2023/06/30 01:25:41;;;;;;;15.13;13.63;;;;;;;;;;5051593;28;20389;-93
2023/06/30 01:28:07;;;;;;;14.13;12.82;;;;;;;;;;5046910;28;20385;-92
2023/06/30 01:30:33;;;;;;;14.38;12.98;;;;;;;;;;5050980;28;20378;-92
2023/06/30 01:32:59;;;;;;;14.55;13.23;;;;;;;;;;5046653;28;20424;-93
2023/06/30 01:35:26;;;;;;;14.23;12.93;;;;;;;;;;5051870;28;20855;-94
2023/06/30 01:37:53;;;;;;;14.00;12.70;;;;;;;;;;5036631;28;20415;-92
2023/06/30 01:40:19;;;;;;;15.07;13.55;;;;;;;;;;5060032;28;20413;-92
2023/06/30 01:42:47;;;;;;;15.37;13.87;;;;;;;;;;5050788;28;20478;-93
2023/06/30 01:45:14;;;;;;;14.20;12.90;;;;;;;;;;5051281;28;20385;-92
2023/06/30 01:47:40;;;;;;;14.30;13.00;;;;;;;;;;5039309;28;20409;-93
2023/06/30 01:50:07;;;;;;;14.45;13.07;;;;;;;;;;5048569;28;20464;-93
2023/06/30 01:52:33;;;;;;;14.32;12.98;;;;;;;;;;5047337;28;20396;-91
2023/06/30 01:54:59;;;;;;;14.32;12.93;;;;;;;;;;5049450;28;20455;-92
2023/06/30 01:57:25;;;;;;;15.02;13.55;;;;;;;;;;5051456;28;20385;-93
2023/06/30 01:59:51;;;;;;;14.82;13.43;;;;;;;;;;5055188;28;20416;-94
2023/06/30 02:02:17;;;;;;;14.43;12.95;;;;;;;;;;5039369;28;20399;-91
2023/06/30 02:04:46;;;;;;;13.65;12.35;;;;;;;;;;5050536;28;20724;-92
2023/06/30 02:07:12;;;;;;;14.73;13.30;;;;;;;;;;5052830;28;20381;-92
2023/06/30 02:09:39;;;;;;;14.00;12.70;;;;;;;;;;5053747;28;20405;-92
2023/06/30 02:12:05;;;;;;;14.20;12.90;;;;;;;;;;5054864;28;20377;-92
2023/06/30 02:14:31;;;;;;;14.57;13.20;;;;;;;;;;5053824;28;20390;-92
2023/06/30 02:17:00;;;;;;;14.65;13.25;;;;;;;;;;5045018;28;20462;-94
2023/06/30 02:19:26;;;;;;;13.50;12.20;;;;;;;;;;5047388;28;20381;-92
2023/06/30 02:21:52;;;;;;;14.73;13.18;;;;;;;;;;5054442;28;20416;-92
2023/06/30 02:24:18;;;;;;;14.55;13.15;;;;;;;;;;5054898;28;20381;-93
2023/06/30 02:26:47;;;;;;;15.43;13.38;;;;;;;;;;5054745;28;20405;-93
2023/06/30 02:29:13;;;;;;;14.43;13.02;;;;;;;;;;5048419;28;20392;-92
2023/06/30 02:31:39;;;;;;;14.90;13.35;;;;;;;;;;5054684;28;20424;-93
2023/06/30 02:34:07;;;;;;;14.25;12.85;;;;;;;;;;5044817;28;20390;-92
2023/06/30 02:36:33;;;;;;;14.65;13.23;;;;;;;;;;5048232;28;20379;-92
2023/06/30 02:38:59;;;;;;;14.13;12.80;;;;;;;;;;5053389;28;20460;-92
2023/06/30 02:41:25;;;;;;;14.17;12.87;;;;;;;;;;5046930;28;20504;-92
2023/06/30 02:43:51;;;;;;;14.73;13.20;;;;;;;;;;5045327;28;20470;-93
2023/06/30 02:46:20;;;;;;;15.80;13.98;;;;;;;;;;5046387;28;20929;-92
2023/06/30 02:48:46;;;;;;;14.35;12.98;;;;;;;;;;5047734;28;20410;-93
2023/06/30 02:51:12;;;;;;;15.70;14.20;;;;;;;;;;5049479;28;20383;-93
2023/06/30 02:53:38;;;;;;;14.88;13.45;;;;;;;;;;5046434;28;20418;-93
2023/06/30 02:56:04;;;;;;;14.95;13.45;;;;;;;;;;5047352;28;20443;-93
2023/06/30 02:58:31;;;;;;;14.00;12.65;;;;;;;;;;5054302;28;20390;-92
2023/06/30 03:00:59;;;;;;;15.32;13.73;;;;;;;;;;5048213;28;20402;-92
2023/06/30 03:03:25;;;;;;;14.15;12.73;;;;;;;;;;5054484;28;20377;-92
2023/06/30 03:05:51;;;;;;;13.95;12.73;;;;;;;;;;5047480;28;20383;-93
2023/06/30 03:08:17;;;;;;;14.85;13.45;;;;;;;;;;5049307;28;20373;-93
2023/06/30 03:10:43;;;;;;;14.50;13.20;;;;;;;;;;5053564;28;20715;-91
2023/06/30 03:13:09;;;;;;;14.60;13.20;;;;;;;;;;5055039;28;20381;-92
2023/06/30 03:15:35;;;;;;;14.98;13.55;;;;;;;;;;5054268;28;20382;-94
2023/06/30 03:18:01;;;;;;;14.38;12.98;;;;;;;;;;5053866;28;20386;-93
2023/06/30 03:20:27;;;;;;;14.80;13.40;;;;;;;;;;5053745;28;20470;-92
2023/06/30 03:22:54;;;;;;;15.05;13.65;;;;;;;;;;5053486;28;20397;-92
2023/06/30 03:25:21;;;;;;;15.15;13.55;;;;;;;;;;5053548;28;20405;-91
2023/06/30 03:27:47;;;;;;;14.68;13.35;;;;;;;;;;5053682;28;20389;-94
2023/06/30 03:30:13;;;;;;;14.50;13.15;;;;;;;;;;5053037;28;20976;-92
2023/06/30 03:32:39;;;;;;;14.40;13.00;;;;;;;;;;5053272;28;20459;-92
2023/06/30 03:35:05;;;;;;;15.95;14.35;;;;;;;;;;5053876;28;20386;-93
2023/06/30 03:37:34;;;;;;;14.90;13.50;;;;;;;;;;5052913;28;20418;-93
2023/06/30 03:40:02;;;;;;;15.50;14.00;;;;;;;;;;5053133;28;20422;-93
2023/06/30 03:42:28;;;;;;;15.52;13.88;;;;;;;;;;5053229;28;20417;-93
2023/06/30 03:44:57;;;;;;;15.30;13.73;;;;;;;;;;5054360;28;20378;-92
2023/06/30 03:47:23;;;;;;;14.63;13.23;;;;;;;;;;5053286;28;20468;-94
2023/06/30 03:49:49;;;;;;;13.82;12.52;;;;;;;;;;5053530;28;20402;-92
2023/06/30 03:52:15;;;;;;;15.33;13.83;;;;;;;;;;5052939;28;20517;-91
2023/06/30 03:54:42;;;;;;;14.65;13.25;;;;;;;;;;5052761;28;20382;-93
2023/06/30 03:57:08;;;;;;;15.50;13.90;;;;;;;;;;5052616;28;20409;-93
2023/06/30 03:59:34;;;;;;;14.93;13.48;;;;;;;;;;5052714;28;20374;-92
2023/06/30 04:02:02;;;;;;;15.35;13.88;;;;;;;;;;5052732;28;20378;-93
2023/06/30 04:04:28;;;;;;;15.10;13.60;;;;;;;;;;5052712;28;20435;-93
2023/06/30 04:06:55;;;;;;;14.55;13.15;;;;;;;;;;5054129;28;20412;-93
2023/06/30 04:09:21;;;;;;;14.68;13.27;;;;;;;;;;5049430;28;20400;-94
2023/06/30 04:11:50;;;;;;;14.53;13.23;;;;;;;;;;5048662;28;20867;-93
2023/06/30 04:14:16;;;;;;;15.10;13.60;;;;;;;;;;5052742;28;20464;-93
2023/06/30 04:16:42;;;;;;;14.60;13.10;;;;;;;;;;5051067;28;20851;-92
2023/06/30 04:19:09;;;;;;;15.27;13.75;;;;;;;;;;5052087;28;20400;-93
2023/06/30 04:21:35;;;;;;;15.77;14.23;;;;;;;;;;5050910;28;20402;-93
2023/06/30 04:24:01;;;;;;;17.88;16.08;;;;;;;;;;5052310;28;20382;-93
2023/06/30 04:26:28;;;;;;;17.90;15.93;;;;;;;;;;5049292;28;20381;-91
2023/06/30 04:28:54;;;;;;;16.48;14.77;;;;;;;;;;5052286;28;20456;-93
2023/06/30 04:31:20;;;;;;;17.98;15.43;;;;;;;;;;5052022;28;20378;-92
2023/06/30 04:33:46;;;;;;;16.00;14.27;;;;;;;;;;5050138;28;20378;-92
2023/06/30 04:36:20;;;;;;;16.98;15.18;;;;;;;;;;5052655;28;20929;-94
2023/06/30 04:38:57;;;;;;;17.80;15.57;;;;;;;;;;5052325;28;20393;-93
2023/06/30 04:41:26;;;;;;;17.63;15.82;;;;;;;;;;5050047;28;20461;-92
2023/06/30 04:43:52;;;;;;;18.45;16.15;;;;;;;;;;5034183;28;20387;-93
2023/06/30 04:46:18;;;;;;;18.85;16.92;;;;;;;;;;5043551;28;20382;-92
2023/06/30 04:48:45;;;;;;;18.20;16.27;;;;;;;;;;5053058;28;20393;-93
2023/06/30 04:51:16;;;;;;;18.47;16.37;;;;;;;;;;5051505;28;20409;-92
2023/06/30 04:53:42;;;;;;;17.70;15.90;;;;;;;;;;5050736;28;20404;-93
2023/06/30 04:56:11;;;;;;;17.70;15.48;;;;;;;;;;5045486;28;20530;-93
2023/06/30 04:58:37;;;;;;;16.77;15.07;;;;;;;;;;5052823;28;20878;-92
2023/06/30 05:01:04;;;;;;;18.88;16.10;;;;;;;;;;5052003;28;20507;-93
2023/06/30 05:03:30;;;;;;;16.05;14.38;;;;;;;;;;5049427;28;20448;-91
2023/06/30 05:05:58;;;;;;;18.77;15.95;;;;;;;;;;5050702;28;20382;-94
2023/06/30 05:08:32;;;;;;;18.55;16.23;;;;;;;;;;5038964;28;20468;-93
2023/06/30 05:10:58;;;;;;;17.75;15.85;;;;;;;;;;5051805;28;20386;-92
2023/06/30 05:13:27;;;;;;;17.05;15.25;;;;;;;;;;5053383;28;20813;-93
2023/06/30 05:15:53;;;;;;;17.23;15.27;;;;;;;;;;5051980;28;20881;-92
2023/06/30 05:18:22;;;;;;;17.27;15.47;;;;;;;;;;5051458;28;20462;-93
2023/06/30 05:20:48;;;;;;;16.60;15.00;;;;;;;;;;5050233;28;20501;-93
2023/06/30 05:23:14;;;;;;;16.88;15.07;;;;;;;;;;5052298;28;20421;-93
2023/06/30 05:25:40;;;;;;;16.58;14.88;;;;;;;;;;5051574;28;20370;-94
2023/06/30 05:28:37;;;;;;;16.30;14.65;;;;;;;;;;5052412;28;20413;-93
2023/06/30 05:31:03;;;;;;;18.08;15.35;;;;;;;;;;5050471;28;20416;-92
2023/06/30 05:33:55;;;;;;;17.55;15.73;;;;;;;;;;5042703;28;20405;-95
2023/06/30 05:36:21;;;;;;;17.17;14.63;;;;;;;;;;5030145;28;20474;-92
2023/06/30 05:38:48;;;;;;;16.65;14.95;;;;;;;;;;5040404;28;20425;-92
2023/06/30 05:41:14;;;;;;;16.50;14.90;;;;;;;;;;5043884;28;20413;-87
2023/06/30 05:43:40;;;;;;;16.00;14.30;;;;;;;;;;5047902;28;20384;-89
2023/06/30 05:46:06;;;;;;;16.17;14.38;;;;;;;;;;5050736;28;20384;-85
2023/06/30 05:48:32;;;;;;;15.85;14.25;;;;;;;;;;5045407;28;20409;-83
2023/06/30 05:50:58;;;;;;;17.95;14.80;;;;;;;;;;5047502;28;20389;-86
2023/06/30 05:53:24;;;;;;;17.55;14.77;;;;;;;;;;5049184;28;20965;-86
2023/06/30 05:55:50;;;;;;;15.52;13.93;;;;;;;;;;5049917;28;20412;-85
2023/06/30 05:58:18;;;;;;;16.20;14.47;;;;;;;;;;5050335;28;20382;-88
2023/06/30 06:00:44;;;;;;;15.60;14.00;;;;;;;;;;5049817;28;20401;-85
2023/06/30 06:03:10;;;;;;;16.17;14.57;;;;;;;;;;5048433;28;20400;-84
2023/06/30 06:05:36;;;;;;;17.95;15.35;;;;;;;;;;5049699;28;20386;-86
2023/06/30 06:08:02;;;;;;;15.70;14.10;;;;;;;;;;5046436;28;20377;-84
2023/06/30 06:10:29;;;;;;;15.70;14.00;;;;;;;;;;5049901;28;20392;-85
2023/06/30 06:12:55;;;;;;;15.25;13.65;;;;;;;;;;5045339;28;20401;-86
2023/06/30 06:15:21;;;;;;;18.33;15.67;;;;;;;;;;5049581;28;20493;-84
2023/06/30 06:17:47;;;;;;;20.05;16.45;;;;;;;;;;5050051;28;20396;-83
2023/06/30 06:20:13;;;;;;;17.98;15.40;;;;;;;;;;5050031;28;20420;-84
2023/06/30 06:22:39;;;;;;;16.20;14.45;;;;;;;;;;5049744;28;20437;-85
2023/06/30 06:25:05;;;;;;;19.23;15.65;;;;;;;;;;5050210;28;20735;-86
2023/06/30 06:27:35;;;;;;;16.92;15.13;;;;;;;;;;5040874;28;20379;-85
2023/06/30 06:30:01;;;;;;;16.70;14.65;;;;;;;;;;5048409;28;20396;-85
2023/06/30 06:32:27;;;;;;;16.85;15.15;;;;;;;;;;5050345;28;20377;-83
2023/06/30 06:34:53;;;;;;;16.33;14.68;;;;;;;;;;5048361;28;20874;-86
2023/06/30 06:37:19;;;;;;;16.38;13.93;;;;;;;;;;5050410;28;20377;-86
2023/06/30 06:39:45;;;;;;;16.43;14.00;;;;;;;;;;5035522;28;20397;-85
2023/06/30 06:42:11;;;;;;;14.60;13.10;;;;;;;;;;5046966;28;20382;-85
2023/06/30 06:44:37;;;;;;;12.55;11.35;;;;;;;;;;5049416;28;20381;-85
2023/06/30 06:47:22;;;;;;;12.93;11.73;;;;;;;;;;5051269;28;20386;-85
2023/06/30 06:49:48;;;;;;;12.35;11.23;;;;;;;;;;5047626;28;20464;-85
2023/06/30 06:52:14;;;;;;;12.00;10.80;;;;;;;;;;5053979;28;20464;-85
2023/06/30 06:54:40;;;;;;;11.20;10.00;;;;;;;;;;5054915;28;20762;-85
2023/06/30 06:57:06;;;;;;;11.20;10.18;;;;;;;;;;5045474;28;20383;-85
2023/06/30 06:59:32;;;;;;;11.80;10.60;;;;;;;;;;5052006;28;20461;-85
2023/06/30 07:01:58;;;;;;;10.93;9.93;;;;;;;;;;5052778;28;20496;-85
2023/06/30 07:04:24;;;;;;;11.38;10.38;;;;;;;;;;5051323;28;20813;-84
2023/06/30 07:06:50;;;;;;;12.40;11.10;;;;;;;;;;5051763;28;20439;-87
2023/06/30 07:09:16;;;;;;;12.25;11.13;;;;;;;;;;5050484;28;20386;-84
2023/06/30 07:11:42;;;;;;;12.05;10.48;;;;;;;;;;5054613;28;20907;-85
2023/06/30 07:14:09;;;;;;;12.48;11.38;;;;;;;;;;5053631;28;20898;-83
2023/06/30 07:16:35;;;;;;;11.82;10.70;;;;;;;;;;5054561;28;20511;-86
2023/06/30 07:19:04;;;;;;;12.23;11.13;;;;;;;;;;5053630;28;20468;-84
2023/06/30 07:21:31;;;;;;;13.00;11.60;;;;;;;;;;5053598;28;20413;-84
2023/06/30 07:23:57;;;;;;;12.97;11.63;;;;;;;;;;5053230;28;20394;-85
2023/06/30 07:26:23;;;;;;;13.33;12.13;;;;;;;;;;5054746;28;20388;-85
2023/06/30 07:28:49;;;;;;;14.27;12.25;;;;;;;;;;5052903;28;20905;-85
2023/06/30 07:31:15;;;;;;;13.57;12.20;;;;;;;;;;5039084;28;20379;-84
2023/06/30 07:33:43;;;;;;;14.73;13.25;;;;;;;;;;5054345;28;20876;-85
2023/06/30 07:36:09;;;;;;;15.27;12.95;;;;;;;;;;5054371;28;20377;-86
2023/06/30 07:38:35;;;;;;;14.30;12.70;;;;;;;;;;5052333;28;20393;-84
2023/06/30 07:41:01;;;;;;;15.27;13.77;;;;;;;;;;5052652;28;20829;-87
2023/06/30 07:43:27;;;;;;;14.52;13.02;;;;;;;;;;5053980;28;20412;-89
2023/06/30 07:45:53;;;;;;;14.13;12.73;;;;;;;;;;5054238;28;20958;-86
2023/06/30 07:48:19;;;;;;;15.88;14.18;;;;;;;;;;5054025;28;20405;-85
2023/06/30 07:50:45;;;;;;;17.93;15.30;;;;;;;;;;5053797;28;20416;-85
2023/06/30 07:53:11;;;;;;;16.33;14.73;;;;;;;;;;5052778;28;20385;-85
2023/06/30 07:55:36;;;;;;;16.55;14.90;;;;;;;;;;5050161;28;20386;-85
2023/06/30 07:58:02;;;;;;;17.67;15.75;;;;;;;;;;5053232;28;20751;-85
2023/06/30 08:00:30;;;;;;;15.98;14.48;;;;;;;;;;5053863;28;20530;-87
2023/06/30 08:02:56;;;;;;;16.92;15.05;;;;;;;;;;5048735;28;20934;-86
2023/06/30 08:05:22;;;;;;;17.23;15.43;;;;;;;;;;5053414;28;20381;-86
2023/06/30 08:07:51;;;;;;;17.17;14.93;;;;;;;;;;5052186;28;20461;-85
2023/06/30 08:10:17;;;;;;;16.35;14.65;;;;;;;;;;5052171;28;20392;-82
2023/06/30 08:12:43;;;;;;;16.30;14.60;;;;;;;;;;5050776;28;20444;-81
2023/06/30 08:15:09;;;;;;;16.10;14.50;;;;;;;;;;5052587;28;20862;-82
2023/06/30 08:17:35;;;;;;;16.10;14.47;;;;;;;;;;5045250;28;20904;-81
2023/06/30 08:20:01;;;;;;;17.00;15.23;;;;;;;;;;5051665;28;20382;-81
2023/06/30 08:22:27;;;;;;;17.52;15.45;;;;;;;;;;5051063;28;20412;-82
2023/06/30 08:24:53;;;;;;;16.20;14.50;;;;;;;;;;5052167;28;20468;-82
2023/06/30 08:27:19;;;;;;;16.05;14.50;;;;;;;;;;5051794;28;20424;-80
2023/06/30 08:29:45;;;;;;;15.57;13.98;;;;;;;;;;5052748;28;20389;-85
2023/06/30 08:32:11;;;;;;;15.88;14.38;;;;;;;;;;5052043;28;20451;-83
2023/06/30 08:34:37;;;;;;;15.20;13.73;;;;;;;;;;5053011;28;20377;-83
2023/06/30 08:37:04;;;;;;;16.25;14.65;;;;;;;;;;5051317;28;20377;-85
2023/06/30 08:39:31;;;;;;;15.53;13.93;;;;;;;;;;5052090;28;20427;-83
2023/06/30 08:41:59;;;;;;;15.90;14.30;;;;;;;;;;5050929;28;20417;-83
2023/06/30 08:44:25;;;;;;;15.52;14.00;;;;;;;;;;5051564;28;20392;-81
2023/06/30 08:46:53;;;;;;;15.68;14.07;;;;;;;;;;5050771;28;20728;-84
2023/06/30 08:49:20;;;;;;;15.75;14.25;;;;;;;;;;5052678;28;20374;-82
2023/06/30 08:51:47;;;;;;;16.60;14.80;;;;;;;;;;5051612;28;20438;-84
2023/06/30 08:54:13;;;;;;;15.73;14.20;;;;;;;;;;5052788;28;20381;-83
2023/06/30 08:56:40;;;;;;;16.13;14.48;;;;;;;;;;5047161;28;20378;-82
2023/06/30 08:59:06;;;;;;;14.93;13.43;;;;;;;;;;5052551;28;20365;-82
2023/06/30 09:01:32;;;;;;;16.17;14.48;;;;;;;;;;5052372;28;20488;-84
2023/06/30 09:03:58;;;;;;;16.45;13.90;;;;;;;;;;5051482;28;20463;-83
2023/06/30 09:06:25;;;;;;;15.98;14.27;;;;;;;;;;5052355;28;20397;-83
2023/06/30 09:09:03;;;;;;;14.20;12.82;;;;;;;;;;5052553;28;20913;-86
2023/06/30 09:11:31;;;;;;;15.20;13.65;;;;;;;;;;5052237;28;20928;-84
2023/06/30 09:14:01;;;;;;;18.60;14.57;;;;;;;;;;5050683;28;20387;-82
2023/06/30 09:16:27;;;;;;;15.70;13.98;;;;;;;;;;5051484;28;20526;-84
2023/06/30 09:18:53;;;;;;;15.82;14.23;;;;;;;;;;5052369;28;20385;-84
2023/06/30 09:21:19;;;;;;;18.60;16.00;;;;;;;;;;5052204;28;20471;-86
2023/06/30 09:23:45;;;;;;;16.75;14.80;;;;;;;;;;5052199;28;20381;-86
2023/06/30 09:26:13;;;;;;;15.93;14.32;;;;;;;;;;5052214;28;20389;-85
2023/06/30 09:28:41;;;;;;;18.10;15.05;;;;;;;;;;5041894;28;20524;-85
2023/06/30 09:31:08;;;;;;;16.70;14.88;;;;;;;;;;5050965;28;20734;-86
2023/06/30 09:33:35;;;;;;;15.30;13.80;;;;;;;;;;5053526;28;20416;-85
2023/06/30 09:36:02;;;;;;;15.52;13.82;;;;;;;;;;5056444;28;20922;-86
2023/06/30 09:38:29;;;;;;;15.25;13.75;;;;;;;;;;5057406;28;20385;-85
2023/06/30 09:40:56;;;;;;;15.73;14.13;;;;;;;;;;5052056;28;20401;-85
2023/06/30 09:43:23;;;;;;;15.35;13.77;;;;;;;;;;5051963;28;20437;-86
2023/06/30 09:45:55;;;;;;;15.45;13.95;;;;;;;;;;5052024;28;20377;-84
2023/06/30 09:48:22;;;;;;;15.00;13.50;;;;;;;;;;5050058;28;20396;-83
2023/06/30 09:50:48;;;;;;;14.55;13.20;;;;;;;;;;5049845;28;20397;-84
2023/06/30 09:53:20;;;;;;;14.47;13.07;;;;;;;;;;5050893;28;20389;-84
2023/06/30 09:55:50;;;;;;;14.95;13.35;;;;;;;;;;5050084;28;20377;-84
2023/06/30 09:58:19;;;;;;;15.03;13.43;;;;;;;;;;5051939;28;20388;-84
2023/06/30 10:00:46;;;;;;;14.10;12.80;;;;;;;;;;5051466;28;20436;-84
2023/06/30 10:03:16;;;;;;;14.70;13.20;;;;;;;;;;5051912;28;20382;-84
2023/06/30 10:05:43;;;;;;;15.35;13.75;;;;;;;;;;5048722;28;20400;-84
2023/06/30 10:08:10;;;;;;;15.07;13.60;;;;;;;;;;5051891;28;20374;-84
2023/06/30 10:10:36;;;;;;;15.82;14.25;;;;;;;;;;5051740;28;20734;-87
2023/06/30 10:13:02;;;;;;;15.27;13.77;;;;;;;;;;5051887;28;20385;-86
2023/06/30 10:15:29;;;;;;;15.30;13.77;;;;;;;;;;5051805;28;20385;-87
2023/06/30 10:17:57;;;;;;;14.55;13.10;;;;;;;;;;5051677;28;20389;-88
2023/06/30 10:20:23;;;;;;;13.98;12.57;;;;;;;;;;5054400;28;20886;-86
2023/06/30 10:22:50;;;;;;;14.10;12.80;;;;;;;;;;5054112;28;20400;-86
2023/06/30 10:25:17;;;;;;;14.02;12.73;;;;;;;;;;5055480;28;20431;-87
2023/06/30 10:27:45;;;;;;;13.93;12.65;;;;;;;;;;5055517;28;20792;-86
2023/06/30 10:30:12;;;;;;;14.38;13.07;;;;;;;;;;5043553;28;20857;-86
2023/06/30 10:32:39;;;;;;;14.50;13.10;;;;;;;;;;5055459;28;20384;-86
2023/06/30 10:35:05;;;;;;;13.73;12.47;;;;;;;;;;5055407;28;20381;-85
2023/06/30 10:37:32;;;;;;;13.80;12.48;;;;;;;;;;5055614;28;20897;-86
2023/06/30 10:39:57;;;;;;;13.90;12.60;;;;;;;;;;5053217;28;20878;-86
2023/06/30 10:42:26;;;;;;;13.67;12.30;;;;;;;;;;5055440;28;20417;-86
2023/06/30 10:44:57;;;;;;;13.70;12.40;;;;;;;;;;5050352;28;20870;-86
2023/06/30 10:47:27;;;;;;;12.30;11.20;;;;;;;;;;5055261;28;20393;-86
2023/06/30 10:49:54;;;;;;;13.48;12.20;;;;;;;;;;5054861;28;20447;-86
2023/06/30 10:52:30;;;;;;;13.05;11.85;;;;;;;;;;5055325;28;20374;-87
2023/06/30 10:55:04;;;;;;;13.80;12.60;;;;;;;;;;5054160;28;20389;-86
2023/06/30 10:57:34;;;;;;;12.85;11.75;;;;;;;;;;5047378;28;20389;-86
2023/06/30 11:00:05;;;;;;;13.52;12.23;;;;;;;;;;5053730;28;20400;-87
2023/06/30 11:02:35;;;;;;;13.40;12.10;;;;;;;;;;5053203;28;20416;-87
2023/06/30 11:05:19;;;;;;;13.98;12.40;;;;;;;;;;5054863;28;20739;-85
2023/06/30 11:07:52;;;;;;;13.80;12.50;;;;;;;;;;5054121;28;20380;-91
2023/06/30 11:10:28;;;;;;;13.57;12.30;;;;;;;;;;5054356;28;20385;-90
2023/06/30 11:12:55;;;;;;;14.15;12.75;;;;;;;;;;5054755;28;20409;-89
2023/06/30 11:15:24;;;;;;;13.88;12.07;;;;;;;;;;5055097;28;20737;-88
2023/06/30 11:17:56;;;;;;;12.45;11.25;;;;;;;;;;5053052;28;20435;-90
2023/06/30 11:20:29;;;;;;;13.40;12.10;;;;;;;;;;5054064;28;20456;-88
2023/06/30 11:23:00;;;;;;;13.02;11.73;;;;;;;;;;5054305;28;20484;-87
2023/06/30 11:25:26;;;;;;;12.80;11.60;;;;;;;;;;5054491;28;20381;-87
2023/06/30 11:27:52;;;;;;;14.98;12.50;;;;;;;;;;5053323;28;20443;-87
2023/06/30 11:30:18;;;;;;;14.07;12.60;;;;;;;;;;5052964;28;20421;-90
2023/06/30 11:32:45;;;;;;;12.80;11.63;;;;;;;;;;5053012;28;20801;-91
2023/06/30 11:35:12;;;;;;;14.48;13.05;;;;;;;;;;5054792;28;20386;-91
2023/06/30 11:37:38;;;;;;;14.13;12.83;;;;;;;;;;5054748;28;20400;-90
2023/06/30 11:40:05;;;;;;;13.50;12.30;;;;;;;;;;5052013;28;20431;-90
2023/06/30 11:42:36;;;;;;;15.50;13.68;;;;;;;;;;5054376;28;20373;-90
2023/06/30 11:45:04;;;;;;;14.63;13.05;;;;;;;;;;5054635;28;20393;-90
2023/06/30 11:47:30;;;;;;;13.90;12.60;;;;;;;;;;5054425;28;20378;-91
2023/06/30 11:49:57;;;;;;;14.57;13.18;;;;;;;;;;5053971;28;20476;-89
2023/06/30 11:52:23;;;;;;;14.80;13.40;;;;;;;;;;5053984;28;20385;-90
2023/06/30 11:54:49;;;;;;;15.60;14.00;;;;;;;;;;5053947;28;20378;-90
2023/06/30 11:57:15;;;;;;;16.23;14.63;;;;;;;;;;5053870;28;20382;-88
2023/06/30 11:59:41;;;;;;;16.20;14.60;;;;;;;;;;5052494;28;20404;-91
2023/06/30 12:02:12;;;;;;;16.53;14.83;;;;;;;;;;5050825;22;20431;-92
2023/06/30 12:04:38;;;;;;;16.58;14.77;;;;;;;;;;5018040;28;20416;-88
2023/06/30 12:07:05;;;;;;;18.23;15.67;;;;;;;;;;5040607;28;20390;-90
2023/06/30 12:09:31;;;;;;;19.05;15.82;;;;;;;;;;5032741;28;20410;-85
2023/06/30 12:11:58;;;;;;;17.27;15.43;;;;;;;;;;5032602;28;20418;-87
2023/06/30 12:14:28;;;;;;;17.50;15.83;;;;;;;;;;5045952;28;20393;-86
2023/06/30 12:16:54;;;;;;;17.45;15.63;;;;;;;;;;5033160;28;20379;-90
2023/06/30 12:19:24;;;;;;;17.50;15.63;;;;;;;;;;5033213;28;20466;-88
2023/06/30 12:21:51;;;;;;;15.97;14.37;;;;;;;;;;5032603;28;20457;-88
2023/06/30 12:24:18;;;;;;;16.57;14.87;;;;;;;;;;5032913;28;20394;-88
2023/06/30 12:26:44;;;;;;;16.23;14.52;;;;;;;;;;5033054;28;20437;-88
2023/06/30 12:29:10;;;;;;;17.10;15.27;;;;;;;;;;5032964;28;20907;-88
2023/06/30 12:31:37;;;;;;;16.55;14.80;;;;;;;;;;5032738;28;20390;-89
2023/06/30 12:34:03;;;;;;;16.92;15.13;;;;;;;;;;5032123;28;20680;-88
2023/06/30 12:36:29;;;;;;;15.70;14.10;;;;;;;;;;5032767;28;20387;-86
2023/06/30 12:38:55;;;;;;;15.30;13.75;;;;;;;;;;5032338;28;20449;-87
2023/06/30 12:41:21;;;;;;;16.40;14.70;;;;;;;;;;5032936;28;20827;-86
2023/06/30 12:43:48;;;;;;;15.95;14.35;;;;;;;;;;5021341;28;20397;-85
2023/06/30 12:46:14;;;;;;;16.38;14.68;;;;;;;;;;5037909;28;20375;-86
2023/06/30 12:48:40;;;;;;;15.82;14.27;;;;;;;;;;5029105;28;20374;-86
2023/06/30 12:51:07;;;;;;;16.60;14.98;;;;;;;;;;5032119;28;20406;-87
2023/06/30 12:53:33;;;;;;;16.13;14.43;;;;;;;;;;5029709;28;20395;-86
2023/06/30 12:55:59;;;;;;;15.48;13.95;;;;;;;;;;5029050;28;20456;-88
2023/06/30 12:58:26;;;;;;;17.17;15.23;;;;;;;;;;5095733;22;20979;-87
2023/06/30 13:00:53;;;;;;;17.25;15.45;;;;;;;;;;5050488;28;20424;-86
2023/06/30 13:03:19;;;;;;;16.30;14.57;;;;;;;;;;5051389;28;20385;-92
2023/06/30 13:05:46;;;;;;;17.08;15.38;;;;;;;;;;5050171;28;20858;-87
2023/06/30 13:08:12;;;;;;;16.95;15.15;;;;;;;;;;5048748;28;20396;-88
2023/06/30 13:10:38;;;;;;;18.20;16.20;;;;;;;;;;5045988;28;20484;-90
2023/06/30 13:13:04;;;;;;;19.73;16.90;;;;;;;;;;5051630;28;20403;-89
2023/06/30 13:15:30;;;;;;;18.80;16.83;;;;;;;;;;5051837;28;20385;-89
2023/06/30 13:17:56;;;;;;;18.70;16.40;;;;;;;;;;5051512;28;20393;-93
2023/06/30 13:20:22;;;;;;;18.42;16.52;;;;;;;;;;5050101;28;20445;-88
2023/06/30 13:22:48;;;;;;;19.75;17.63;;;;;;;;;;5049547;28;20388;-87
2023/06/30 13:25:16;;;;;;;18.93;16.53;;;;;;;;;;5051375;28;20391;-87
2023/06/30 13:27:44;;;;;;;18.67;15.98;;;;;;;;;;5062793;28;20382;-93
2023/06/30 13:30:10;;;;;;;19.08;16.52;;;;;;;;;;5053507;28;20455;-91
2023/06/30 13:32:39;;;;;;;19.08;17.10;;;;;;;;;;5052206;28;20961;-89
2023/06/30 13:35:05;;;;;;;19.23;17.00;;;;;;;;;;5051614;28;20373;-89
2023/06/30 13:37:31;;;;;;;17.95;16.15;;;;;;;;;;5051552;28;20861;-91
2023/06/30 13:39:57;;;;;;;19.52;17.48;;;;;;;;;;5048991;28;20391;-93
2023/06/30 13:42:24;;;;;;;19.35;17.25;;;;;;;;;;5051133;28;20389;-89
2023/06/30 13:44:50;;;;;;;17.67;15.90;;;;;;;;;;5051219;28;20418;-91
2023/06/30 13:47:16;;;;;;;19.70;17.60;;;;;;;;;;5051809;28;20377;-92
2023/06/30 13:49:42;;;;;;;18.52;16.50;;;;;;;;;;5059156;28;20385;-94
2023/06/30 13:52:08;;;;;;;18.42;16.52;;;;;;;;;;5050942;22;20451;-87
2023/06/30 13:54:36;;;;;;;19.48;17.20;;;;;;;;;;5017277;28;20871;-87
2023/06/30 13:57:02;;;;;;;19.45;16.63;;;;;;;;;;5019859;28;20535;-84
2023/06/30 13:59:28;;;;;;;17.88;16.00;;;;;;;;;;5000839;28;20758;-85
2023/06/30 14:01:54;;;;;;;18.75;16.55;;;;;;;;;;5020263;28;20411;-86
2023/06/30 14:04:20;;;;;;;19.63;16.90;;;;;;;;;;5017718;28;20397;-84
2023/06/30 14:06:46;;;;;;;20.02;17.52;;;;;;;;;;5019207;28;20874;-84
2023/06/30 14:09:12;;;;;;;18.23;16.17;;;;;;;;;;5023150;28;20387;-84
2023/06/30 14:11:39;;;;;;;18.60;16.63;;;;;;;;;;5029619;28;20395;-84
2023/06/30 14:14:05;;;;;;;18.67;16.75;;;;;;;;;;5016305;28;20388;-84
2023/06/30 14:16:34;;;;;;;19.58;17.48;;;;;;;;;;5015170;28;20454;-84